sensor_id;sensor_type;location;lat;lon;timestamp;P1;durP1;ratioP1;P2;durP2;ratioP2
50102;SDS011;35993;52.604;10.078;2022-10-16T00:00:53;1.95;;;1.00;;
50102;SDS011;35993;52.604;10.078;2022-10-16T00:03:19;2.25;;;1.05;;
50102;SDS011;35993;52.604;10.078;2022-10-16T00:05:45;3.45;;;1.10;;
50102;SDS011;35993;52.604;10.078;2022-10-16T00:08:20;2.40;;;0.88;;
50102;SDS011;35993;52.604;10.078;2022-10-16T00:10:45;1.52;;;1.00;;
50102;SDS011;35993;52.604;10.078;2022-10-16T00:13:11;1.25;;;0.90;;
50102;SDS011;35993;52.604;10.078;2022-10-16T00:15:36;3.38;;;1.00;;
50102;SDS011;35993;52.604;10.078;2022-10-16T00:18:04;1.80;;;1.10;;
50102;SDS011;35993;52.604;10.078;2022-10-16T00:20:30;2.92;;;1.38;;
50102;SDS011;35993;52.604;10.078;2022-10-16T00:23:17;2.10;;;1.10;;
50102;SDS011;35993;52.604;10.078;2022-10-16T00:25:43;1.40;;;1.05;;
50102;SDS011;35993;52.604;10.078;2022-10-16T00:28:08;3.17;;;1.10;;
50102;SDS011;35993;52.604;10.078;2022-10-16T00:30:37;2.55;;;1.20;;
50102;SDS011;35993;52.604;10.078;2022-10-16T00:33:03;2.38;;;1.17;;
50102;SDS011;35993;52.604;10.078;2022-10-16T00:35:30;2.50;;;1.02;;
50102;SDS011;35993;52.604;10.078;2022-10-16T00:37:56;2.22;;;1.23;;
50102;SDS011;35993;52.604;10.078;2022-10-16T00:40:21;2.38;;;1.25;;
50102;SDS011;35993;52.604;10.078;2022-10-16T00:42:47;2.00;;;1.30;;
50102;SDS011;35993;52.604;10.078;2022-10-16T00:45:12;4.82;;;1.50;;
50102;SDS011;35993;52.604;10.078;2022-10-16T00:47:45;3.92;;;1.38;;
50102;SDS011;35993;52.604;10.078;2022-10-16T00:52:53;2.95;;;1.30;;
50102;SDS011;35993;52.604;10.078;2022-10-16T00:55:20;4.22;;;1.25;;
50102;SDS011;35993;52.604;10.078;2022-10-16T00:57:47;3.40;;;1.35;;
50102;SDS011;35993;52.604;10.078;2022-10-16T01:00:15;2.88;;;1.40;;
50102;SDS011;35993;52.604;10.078;2022-10-16T01:02:56;3.65;;;1.25;;
50102;SDS011;35993;52.604;10.078;2022-10-16T01:05:27;1.90;;;1.10;;
50102;SDS011;35993;52.604;10.078;2022-10-16T01:08:09;4.68;;;1.20;;
50102;SDS011;35993;52.604;10.078;2022-10-16T01:11:16;1.98;;;1.10;;
50102;SDS011;35993;52.604;10.078;2022-10-16T01:13:49;4.60;;;1.30;;
50102;SDS011;35993;52.604;10.078;2022-10-16T01:19:05;2.60;;;1.20;;
50102;SDS011;35993;52.604;10.078;2022-10-16T01:21:40;3.88;;;1.20;;
50102;SDS011;35993;52.604;10.078;2022-10-16T01:30:05;3.50;;;1.10;;
50102;SDS011;35993;52.604;10.078;2022-10-16T01:35:11;2.28;;;1.27;;
50102;SDS011;35993;52.604;10.078;2022-10-16T01:37:48;6.35;;;1.15;;
50102;SDS011;35993;52.604;10.078;2022-10-16T01:40:15;2.77;;;1.10;;
50102;SDS011;35993;52.604;10.078;2022-10-16T01:42:46;3.60;;;1.10;;
50102;SDS011;35993;52.604;10.078;2022-10-16T01:45:15;3.72;;;1.08;;
50102;SDS011;35993;52.604;10.078;2022-10-16T01:47:44;3.38;;;1.30;;
50102;SDS011;35993;52.604;10.078;2022-10-16T01:50:10;2.75;;;1.30;;
50102;SDS011;35993;52.604;10.078;2022-10-16T01:52:52;3.67;;;1.25;;
50102;SDS011;35993;52.604;10.078;2022-10-16T01:55:28;1.95;;;1.13;;
50102;SDS011;35993;52.604;10.078;2022-10-16T01:58:01;5.38;;;1.35;;
50102;SDS011;35993;52.604;10.078;2022-10-16T02:00:30;4.07;;;1.20;;
50102;SDS011;35993;52.604;10.078;2022-10-16T02:02:56;2.03;;;1.10;;
50102;SDS011;35993;52.604;10.078;2022-10-16T02:08:10;1.70;;;1.20;;
50102;SDS011;35993;52.604;10.078;2022-10-16T02:10:37;5.93;;;1.20;;
50102;SDS011;35993;52.604;10.078;2022-10-16T02:13:11;1.63;;;1.00;;
50102;SDS011;35993;52.604;10.078;2022-10-16T02:15:42;1.58;;;1.10;;
50102;SDS011;35993;52.604;10.078;2022-10-16T02:18:08;1.25;;;0.88;;
50102;SDS011;35993;52.604;10.078;2022-10-16T02:20:51;2.38;;;1.10;;
50102;SDS011;35993;52.604;10.078;2022-10-16T02:23:33;2.78;;;1.25;;
50102;SDS011;35993;52.604;10.078;2022-10-16T02:26:07;2.05;;;1.17;;
50102;SDS011;35993;52.604;10.078;2022-10-16T02:28:39;2.83;;;1.10;;
50102;SDS011;35993;52.604;10.078;2022-10-16T02:31:08;2.80;;;1.20;;
50102;SDS011;35993;52.604;10.078;2022-10-16T02:33:37;2.63;;;1.30;;
50102;SDS011;35993;52.604;10.078;2022-10-16T02:36:14;1.88;;;0.93;;
50102;SDS011;35993;52.604;10.078;2022-10-16T02:38:40;3.35;;;1.27;;
50102;SDS011;35993;52.604;10.078;2022-10-16T02:41:06;3.72;;;1.10;;
50102;SDS011;35993;52.604;10.078;2022-10-16T02:43:41;2.05;;;1.02;;
50102;SDS011;35993;52.604;10.078;2022-10-16T02:46:07;2.03;;;1.30;;
50102;SDS011;35993;52.604;10.078;2022-10-16T02:48:33;7.75;;;1.40;;
50102;SDS011;35993;52.604;10.078;2022-10-16T02:51:00;4.47;;;1.80;;
50102;SDS011;35993;52.604;10.078;2022-10-16T02:53:25;5.15;;;1.60;;
50102;SDS011;35993;52.604;10.078;2022-10-16T02:55:51;3.75;;;1.77;;
50102;SDS011;35993;52.604;10.078;2022-10-16T02:58:16;6.88;;;2.40;;
50102;SDS011;35993;52.604;10.078;2022-10-16T03:00:42;8.57;;;2.75;;
50102;SDS011;35993;52.604;10.078;2022-10-16T03:03:07;9.30;;;2.65;;
50102;SDS011;35993;52.604;10.078;2022-10-16T03:05:33;9.00;;;2.63;;
50102;SDS011;35993;52.604;10.078;2022-10-16T03:07:58;10.60;;;3.00;;
50102;SDS011;35993;52.604;10.078;2022-10-16T03:10:26;8.57;;;2.67;;
50102;SDS011;35993;52.604;10.078;2022-10-16T03:12:53;6.53;;;2.10;;
50102;SDS011;35993;52.604;10.078;2022-10-16T03:15:18;7.85;;;2.45;;
50102;SDS011;35993;52.604;10.078;2022-10-16T03:17:44;5.25;;;2.05;;
50102;SDS011;35993;52.604;10.078;2022-10-16T03:20:09;5.28;;;1.80;;
50102;SDS011;35993;52.604;10.078;2022-10-16T03:22:53;5.15;;;1.90;;
50102;SDS011;35993;52.604;10.078;2022-10-16T03:25:18;3.75;;;1.70;;
50102;SDS011;35993;52.604;10.078;2022-10-16T03:27:44;4.55;;;1.60;;
50102;SDS011;35993;52.604;10.078;2022-10-16T03:30:30;4.50;;;1.52;;
50102;SDS011;35993;52.604;10.078;2022-10-16T03:32:55;2.63;;;1.40;;
50102;SDS011;35993;52.604;10.078;2022-10-16T03:35:21;2.63;;;1.50;;
50102;SDS011;35993;52.604;10.078;2022-10-16T03:37:48;6.57;;;1.50;;
50102;SDS011;35993;52.604;10.078;2022-10-16T03:40:14;3.85;;;1.60;;
50102;SDS011;35993;52.604;10.078;2022-10-16T03:42:40;2.08;;;1.40;;
50102;SDS011;35993;52.604;10.078;2022-10-16T03:45:10;1.95;;;1.40;;
50102;SDS011;35993;52.604;10.078;2022-10-16T03:47:36;3.40;;;1.52;;
50102;SDS011;35993;52.604;10.078;2022-10-16T03:50:07;1.50;;;1.30;;
50102;SDS011;35993;52.604;10.078;2022-10-16T03:52:33;3.22;;;2.13;;
50102;SDS011;35993;52.604;10.078;2022-10-16T03:54:58;3.83;;;1.67;;
50102;SDS011;35993;52.604;10.078;2022-10-16T03:57:24;3.95;;;1.58;;
50102;SDS011;35993;52.604;10.078;2022-10-16T03:59:50;3.78;;;1.48;;
50102;SDS011;35993;52.604;10.078;2022-10-16T04:02:16;2.80;;;1.52;;
50102;SDS011;35993;52.604;10.078;2022-10-16T04:04:41;2.30;;;1.70;;
50102;SDS011;35993;52.604;10.078;2022-10-16T04:07:07;4.20;;;1.65;;
50102;SDS011;35993;52.604;10.078;2022-10-16T04:09:32;3.13;;;1.67;;
50102;SDS011;35993;52.604;10.078;2022-10-16T04:11:58;3.03;;;1.75;;
50102;SDS011;35993;52.604;10.078;2022-10-16T04:14:38;3.08;;;1.60;;
50102;SDS011;35993;52.604;10.078;2022-10-16T04:17:04;6.72;;;2.25;;
50102;SDS011;35993;52.604;10.078;2022-10-16T04:19:29;2.15;;;1.58;;
50102;SDS011;35993;52.604;10.078;2022-10-16T04:21:55;2.58;;;1.67;;
50102;SDS011;35993;52.604;10.078;2022-10-16T04:24:21;7.50;;;1.80;;
50102;SDS011;35993;52.604;10.078;2022-10-16T04:26:46;2.30;;;1.70;;
50102;SDS011;35993;52.604;10.078;2022-10-16T04:29:12;3.35;;;1.65;;
50102;SDS011;35993;52.604;10.078;2022-10-16T04:31:47;2.88;;;1.90;;
50102;SDS011;35993;52.604;10.078;2022-10-16T04:34:13;3.70;;;2.08;;
50102;SDS011;35993;52.604;10.078;2022-10-16T04:36:39;3.28;;;1.90;;
50102;SDS011;35993;52.604;10.078;2022-10-16T04:39:16;3.63;;;2.10;;
50102;SDS011;35993;52.604;10.078;2022-10-16T04:41:42;5.22;;;2.00;;
50102;SDS011;35993;52.604;10.078;2022-10-16T04:44:07;3.33;;;2.03;;
50102;SDS011;35993;52.604;10.078;2022-10-16T04:46:33;6.10;;;2.30;;
50102;SDS011;35993;52.604;10.078;2022-10-16T04:48:59;4.85;;;2.30;;
50102;SDS011;35993;52.604;10.078;2022-10-16T04:51:24;5.22;;;2.50;;
50102;SDS011;35993;52.604;10.078;2022-10-16T04:53:51;3.75;;;2.10;;
50102;SDS011;35993;52.604;10.078;2022-10-16T04:56:16;5.13;;;2.20;;
50102;SDS011;35993;52.604;10.078;2022-10-16T04:58:42;3.83;;;2.30;;
50102;SDS011;35993;52.604;10.078;2022-10-16T05:01:08;3.58;;;2.30;;
50102;SDS011;35993;52.604;10.078;2022-10-16T05:03:33;6.85;;;2.45;;
50102;SDS011;35993;52.604;10.078;2022-10-16T05:06:17;5.05;;;2.72;;
50102;SDS011;35993;52.604;10.078;2022-10-16T05:08:42;3.85;;;2.17;;
50102;SDS011;35993;52.604;10.078;2022-10-16T05:11:08;3.67;;;2.47;;
50102;SDS011;35993;52.604;10.078;2022-10-16T05:13:33;6.15;;;2.42;;
50102;SDS011;35993;52.604;10.078;2022-10-16T05:15:59;4.10;;;2.67;;
50102;SDS011;35993;52.604;10.078;2022-10-16T05:18:24;6.20;;;2.85;;
50102;SDS011;35993;52.604;10.078;2022-10-16T05:20:50;4.55;;;2.80;;
50102;SDS011;35993;52.604;10.078;2022-10-16T05:23:15;5.13;;;2.90;;
50102;SDS011;35993;52.604;10.078;2022-10-16T05:25:41;5.38;;;2.80;;
50102;SDS011;35993;52.604;10.078;2022-10-16T05:28:06;3.97;;;2.65;;
50102;SDS011;35993;52.604;10.078;2022-10-16T05:30:32;4.95;;;2.50;;
50102;SDS011;35993;52.604;10.078;2022-10-16T05:32:57;4.85;;;2.75;;
50102;SDS011;35993;52.604;10.078;2022-10-16T05:35:23;7.25;;;3.05;;
50102;SDS011;35993;52.604;10.078;2022-10-16T05:37:49;6.22;;;2.72;;
50102;SDS011;35993;52.604;10.078;2022-10-16T05:40:14;4.75;;;2.60;;
50102;SDS011;35993;52.604;10.078;2022-10-16T05:42:41;5.03;;;2.92;;
50102;SDS011;35993;52.604;10.078;2022-10-16T05:45:08;4.65;;;2.70;;
50102;SDS011;35993;52.604;10.078;2022-10-16T05:47:35;4.65;;;2.75;;
50102;SDS011;35993;52.604;10.078;2022-10-16T05:50:00;7.30;;;2.92;;
50102;SDS011;35993;52.604;10.078;2022-10-16T05:52:26;4.68;;;2.90;;
50102;SDS011;35993;52.604;10.078;2022-10-16T05:54:52;5.35;;;3.05;;
50102;SDS011;35993;52.604;10.078;2022-10-16T05:57:18;3.88;;;2.97;;
50102;SDS011;35993;52.604;10.078;2022-10-16T05:59:43;4.65;;;3.17;;
50102;SDS011;35993;52.604;10.078;2022-10-16T06:02:12;4.85;;;2.97;;
50102;SDS011;35993;52.604;10.078;2022-10-16T06:04:39;4.22;;;2.70;;
50102;SDS011;35993;52.604;10.078;2022-10-16T06:07:04;4.50;;;3.00;;
50102;SDS011;35993;52.604;10.078;2022-10-16T06:09:30;5.47;;;2.78;;
50102;SDS011;35993;52.604;10.078;2022-10-16T06:11:55;5.00;;;2.80;;
50102;SDS011;35993;52.604;10.078;2022-10-16T06:14:21;6.72;;;2.75;;
50102;SDS011;35993;52.604;10.078;2022-10-16T06:16:46;3.85;;;2.80;;
50102;SDS011;35993;52.604;10.078;2022-10-16T06:19:12;4.97;;;2.80;;
50102;SDS011;35993;52.604;10.078;2022-10-16T06:21:37;6.35;;;3.00;;
50102;SDS011;35993;52.604;10.078;2022-10-16T06:24:03;6.35;;;2.63;;
50102;SDS011;35993;52.604;10.078;2022-10-16T06:26:29;4.80;;;2.90;;
50102;SDS011;35993;52.604;10.078;2022-10-16T06:28:56;5.65;;;2.50;;
50102;SDS011;35993;52.604;10.078;2022-10-16T06:31:23;5.70;;;3.25;;
50102;SDS011;35993;52.604;10.078;2022-10-16T06:33:53;4.93;;;2.70;;
50102;SDS011;35993;52.604;10.078;2022-10-16T06:36:19;5.25;;;3.40;;
50102;SDS011;35993;52.604;10.078;2022-10-16T06:38:46;4.60;;;2.80;;
50102;SDS011;35993;52.604;10.078;2022-10-16T06:41:13;5.10;;;2.83;;
50102;SDS011;35993;52.604;10.078;2022-10-16T06:43:42;5.65;;;2.63;;
50102;SDS011;35993;52.604;10.078;2022-10-16T06:46:10;4.70;;;2.67;;
50102;SDS011;35993;52.604;10.078;2022-10-16T06:48:37;8.63;;;2.60;;
50102;SDS011;35993;52.604;10.078;2022-10-16T06:51:09;4.88;;;2.70;;
50102;SDS011;35993;52.604;10.078;2022-10-16T06:53:38;6.82;;;2.70;;
50102;SDS011;35993;52.604;10.078;2022-10-16T06:56:09;5.53;;;3.10;;
50102;SDS011;35993;52.604;10.078;2022-10-16T06:58:39;4.55;;;2.75;;
50102;SDS011;35993;52.604;10.078;2022-10-16T07:01:05;4.07;;;2.50;;
50102;SDS011;35993;52.604;10.078;2022-10-16T07:03:31;4.65;;;2.80;;
50102;SDS011;35993;52.604;10.078;2022-10-16T07:06:00;5.93;;;3.08;;
50102;SDS011;35993;52.604;10.078;2022-10-16T07:08:27;7.20;;;3.00;;
50102;SDS011;35993;52.604;10.078;2022-10-16T07:10:59;7.70;;;2.90;;
50102;SDS011;35993;52.604;10.078;2022-10-16T07:13:26;5.30;;;3.03;;
50102;SDS011;35993;52.604;10.078;2022-10-16T07:15:51;4.50;;;2.42;;
50102;SDS011;35993;52.604;10.078;2022-10-16T07:18:17;5.25;;;2.40;;
50102;SDS011;35993;52.604;10.078;2022-10-16T07:20:43;4.50;;;2.60;;
50102;SDS011;35993;52.604;10.078;2022-10-16T07:23:09;4.15;;;2.08;;
50102;SDS011;35993;52.604;10.078;2022-10-16T07:25:34;4.68;;;2.35;;
50102;SDS011;35993;52.604;10.078;2022-10-16T07:28:00;4.10;;;2.10;;
50102;SDS011;35993;52.604;10.078;2022-10-16T07:30:26;2.97;;;1.88;;
50102;SDS011;35993;52.604;10.078;2022-10-16T07:32:51;4.63;;;2.30;;
50102;SDS011;35993;52.604;10.078;2022-10-16T07:35:17;4.75;;;2.00;;
50102;SDS011;35993;52.604;10.078;2022-10-16T07:37:45;3.28;;;1.80;;
50102;SDS011;35993;52.604;10.078;2022-10-16T07:40:11;4.10;;;1.73;;
50102;SDS011;35993;52.604;10.078;2022-10-16T07:42:37;3.92;;;2.05;;
50102;SDS011;35993;52.604;10.078;2022-10-16T07:45:03;2.80;;;1.80;;
50102;SDS011;35993;52.604;10.078;2022-10-16T07:47:29;5.07;;;2.03;;
50102;SDS011;35993;52.604;10.078;2022-10-16T07:49:55;2.53;;;1.55;;
50102;SDS011;35993;52.604;10.078;2022-10-16T07:52:21;2.17;;;1.60;;
50102;SDS011;35993;52.604;10.078;2022-10-16T07:54:46;3.72;;;1.75;;
50102;SDS011;35993;52.604;10.078;2022-10-16T07:57:30;3.15;;;1.70;;
50102;SDS011;35993;52.604;10.078;2022-10-16T08:00:09;2.80;;;1.50;;
50102;SDS011;35993;52.604;10.078;2022-10-16T08:02:39;2.85;;;1.60;;
50102;SDS011;35993;52.604;10.078;2022-10-16T08:05:05;1.80;;;1.20;;
50102;SDS011;35993;52.604;10.078;2022-10-16T08:07:52;2.92;;;1.45;;
50102;SDS011;35993;52.604;10.078;2022-10-16T08:10:18;3.28;;;1.90;;
50102;SDS011;35993;52.604;10.078;2022-10-16T08:12:45;3.75;;;1.20;;
50102;SDS011;35993;52.604;10.078;2022-10-16T08:15:10;3.17;;;1.33;;
50102;SDS011;35993;52.604;10.078;2022-10-16T08:17:37;5.90;;;1.23;;
50102;SDS011;35993;52.604;10.078;2022-10-16T08:20:02;2.25;;;1.10;;
50102;SDS011;35993;52.604;10.078;2022-10-16T08:22:28;2.00;;;1.20;;
50102;SDS011;35993;52.604;10.078;2022-10-16T08:24:54;3.13;;;1.90;;
50102;SDS011;35993;52.604;10.078;2022-10-16T08:27:19;2.53;;;1.13;;
50102;SDS011;35993;52.604;10.078;2022-10-16T08:29:45;2.40;;;1.10;;
50102;SDS011;35993;52.604;10.078;2022-10-16T08:32:10;4.20;;;1.10;;
50102;SDS011;35993;52.604;10.078;2022-10-16T08:34:36;1.58;;;1.10;;
50102;SDS011;35993;52.604;10.078;2022-10-16T08:37:01;1.08;;;0.90;;
50102;SDS011;35993;52.604;10.078;2022-10-16T08:39:27;3.60;;;1.20;;
50102;SDS011;35993;52.604;10.078;2022-10-16T08:42:03;1.80;;;0.90;;
50102;SDS011;35993;52.604;10.078;2022-10-16T08:47:25;1.30;;;1.00;;
50102;SDS011;35993;52.604;10.078;2022-10-16T08:50:02;2.10;;;1.00;;
50102;SDS011;35993;52.604;10.078;2022-10-16T08:52:35;2.42;;;0.98;;
50102;SDS011;35993;52.604;10.078;2022-10-16T08:58:13;2.30;;;1.10;;
50102;SDS011;35993;52.604;10.078;2022-10-16T09:00:41;1.98;;;0.90;;
50102;SDS011;35993;52.604;10.078;2022-10-16T09:09:24;2.42;;;1.10;;
50102;SDS011;35993;52.604;10.078;2022-10-16T09:11:50;1.75;;;1.00;;
50102;SDS011;35993;52.604;10.078;2022-10-16T09:14:32;2.35;;;1.23;;
50102;SDS011;35993;52.604;10.078;2022-10-16T09:22:44;1.02;;;0.75;;
50102;SDS011;35993;52.604;10.078;2022-10-16T09:25:33;1.00;;;0.80;;
50102;SDS011;35993;52.604;10.078;2022-10-16T09:28:00;2.30;;;0.98;;
50102;SDS011;35993;52.604;10.078;2022-10-16T09:30:26;1.33;;;0.88;;
50102;SDS011;35993;52.604;10.078;2022-10-16T09:32:54;1.85;;;1.10;;
50102;SDS011;35993;52.604;10.078;2022-10-16T09:35:42;4.18;;;0.88;;
50102;SDS011;35993;52.604;10.078;2022-10-16T09:38:09;2.58;;;0.90;;
50102;SDS011;35993;52.604;10.078;2022-10-16T09:40:58;1.85;;;0.90;;
50102;SDS011;35993;52.604;10.078;2022-10-16T09:43:38;2.25;;;0.85;;
50102;SDS011;35993;52.604;10.078;2022-10-16T09:46:08;1.35;;;0.93;;
50102;SDS011;35993;52.604;10.078;2022-10-16T09:48:47;0.95;;;0.73;;
50102;SDS011;35993;52.604;10.078;2022-10-16T09:51:19;1.42;;;0.70;;
50102;SDS011;35993;52.604;10.078;2022-10-16T09:53:48;1.70;;;1.02;;
50102;SDS011;35993;52.604;10.078;2022-10-16T09:56:22;6.15;;;0.90;;
50102;SDS011;35993;52.604;10.078;2022-10-16T09:58:55;1.00;;;0.75;;
50102;SDS011;35993;52.604;10.078;2022-10-16T10:04:08;2.25;;;0.80;;
50102;SDS011;35993;52.604;10.078;2022-10-16T10:06:36;1.88;;;0.88;;
50102;SDS011;35993;52.604;10.078;2022-10-16T10:09:22;4.25;;;1.05;;
50102;SDS011;35993;52.604;10.078;2022-10-16T10:14:19;1.65;;;0.70;;
50102;SDS011;35993;52.604;10.078;2022-10-16T10:16:46;2.97;;;0.80;;
50102;SDS011;35993;52.604;10.078;2022-10-16T10:19:16;1.85;;;1.05;;
50102;SDS011;35993;52.604;10.078;2022-10-16T10:21:43;1.57;;;0.80;;
50102;SDS011;35993;52.604;10.078;2022-10-16T10:24:14;5.13;;;0.90;;
50102;SDS011;35993;52.604;10.078;2022-10-16T10:26:45;2.53;;;1.10;;
50102;SDS011;35993;52.604;10.078;2022-10-16T10:29:30;1.27;;;0.70;;
50102;SDS011;35993;52.604;10.078;2022-10-16T10:38:05;0.93;;;0.55;;
50102;SDS011;35993;52.604;10.078;2022-10-16T10:40:39;1.52;;;0.75;;
50102;SDS011;35993;52.604;10.078;2022-10-16T10:43:29;2.83;;;0.60;;
50102;SDS011;35993;52.604;10.078;2022-10-16T10:46:08;1.50;;;0.90;;
50102;SDS011;35993;52.604;10.078;2022-10-16T10:51:51;1.95;;;0.90;;
50102;SDS011;35993;52.604;10.078;2022-10-16T10:54:27;1.63;;;1.02;;
50102;SDS011;35993;52.604;10.078;2022-10-16T10:57:00;3.78;;;0.98;;
50102;SDS011;35993;52.604;10.078;2022-10-16T11:04:59;2.75;;;0.70;;
50102;SDS011;35993;52.604;10.078;2022-10-16T11:07:45;2.00;;;0.77;;
50102;SDS011;35993;52.604;10.078;2022-10-16T11:10:20;2.35;;;1.13;;
50102;SDS011;35993;52.604;10.078;2022-10-16T11:12:58;1.45;;;0.68;;
50102;SDS011;35993;52.604;10.078;2022-10-16T11:15:36;1.17;;;0.77;;
50102;SDS011;35993;52.604;10.078;2022-10-16T11:18:06;2.00;;;0.80;;
50102;SDS011;35993;52.604;10.078;2022-10-16T11:20:42;2.42;;;0.70;;
50102;SDS011;35993;52.604;10.078;2022-10-16T11:25:52;2.90;;;1.00;;
50102;SDS011;35993;52.604;10.078;2022-10-16T11:28:25;2.10;;;0.90;;
50102;SDS011;35993;52.604;10.078;2022-10-16T11:36:49;2.40;;;0.90;;
50102;SDS011;35993;52.604;10.078;2022-10-16T11:39:24;2.53;;;0.80;;
50102;SDS011;35993;52.604;10.078;2022-10-16T11:47:51;3.75;;;1.08;;
50102;SDS011;35993;52.604;10.078;2022-10-16T11:50:42;1.58;;;0.70;;
50102;SDS011;35993;52.604;10.078;2022-10-16T11:55:51;1.95;;;0.90;;
50102;SDS011;35993;52.604;10.078;2022-10-16T11:58:37;2.28;;;0.70;;
50102;SDS011;35993;52.604;10.078;2022-10-16T12:01:31;2.78;;;0.80;;
50102;SDS011;35993;52.604;10.078;2022-10-16T12:06:41;2.33;;;0.70;;
50102;SDS011;35993;52.604;10.078;2022-10-16T12:09:14;2.83;;;1.02;;
50102;SDS011;35993;52.604;10.078;2022-10-16T12:11:45;3.75;;;1.10;;
50102;SDS011;35993;52.604;10.078;2022-10-16T12:17:03;2.20;;;0.90;;
50102;SDS011;35993;52.604;10.078;2022-10-16T12:22:59;1.88;;;0.80;;
50102;SDS011;35993;52.604;10.078;2022-10-16T12:25:28;1.80;;;0.80;;
50102;SDS011;35993;52.604;10.078;2022-10-16T12:28:04;6.05;;;1.10;;
50102;SDS011;35993;52.604;10.078;2022-10-16T12:30:33;2.13;;;0.98;;
50102;SDS011;35993;52.604;10.078;2022-10-16T12:33:02;6.45;;;1.10;;
50102;SDS011;35993;52.604;10.078;2022-10-16T12:35:32;1.35;;;0.80;;
50102;SDS011;35993;52.604;10.078;2022-10-16T12:38:07;2.35;;;1.20;;
50102;SDS011;35993;52.604;10.078;2022-10-16T12:40:39;2.58;;;0.80;;
50102;SDS011;35993;52.604;10.078;2022-10-16T12:45:45;3.38;;;0.95;;
50102;SDS011;35993;52.604;10.078;2022-10-16T12:48:19;2.53;;;0.88;;
50102;SDS011;35993;52.604;10.078;2022-10-16T12:50:47;1.90;;;0.88;;
50102;SDS011;35993;52.604;10.078;2022-10-16T12:53:20;2.67;;;0.88;;
50102;SDS011;35993;52.604;10.078;2022-10-16T13:01:38;1.67;;;0.85;;
50102;SDS011;35993;52.604;10.078;2022-10-16T13:10:01;1.50;;;0.77;;
50102;SDS011;35993;52.604;10.078;2022-10-16T13:12:55;4.40;;;2.13;;
50102;SDS011;35993;52.604;10.078;2022-10-16T13:15:53;2.25;;;0.98;;
50102;SDS011;35993;52.604;10.078;2022-10-16T13:21:25;3.45;;;1.08;;
50102;SDS011;35993;52.604;10.078;2022-10-16T13:24:15;4.38;;;1.40;;
50102;SDS011;35993;52.604;10.078;2022-10-16T13:27:06;1.52;;;1.00;;
50102;SDS011;35993;52.604;10.078;2022-10-16T13:29:37;5.72;;;2.75;;
50102;SDS011;35993;52.604;10.078;2022-10-16T13:32:07;4.13;;;1.52;;
50102;SDS011;35993;52.604;10.078;2022-10-16T13:34:46;1.50;;;1.27;;
50102;SDS011;35993;52.604;10.078;2022-10-16T13:37:20;1.25;;;0.90;;
50102;SDS011;35993;52.604;10.078;2022-10-16T13:39:47;1.80;;;1.20;;
50102;SDS011;35993;52.604;10.078;2022-10-16T13:44:53;3.63;;;1.00;;
50102;SDS011;35993;52.604;10.078;2022-10-16T13:47:24;1.58;;;1.08;;
50102;SDS011;35993;52.604;10.078;2022-10-16T13:52:41;0.90;;;0.80;;
50102;SDS011;35993;52.604;10.078;2022-10-16T13:55:15;2.03;;;0.90;;
50102;SDS011;35993;52.604;10.078;2022-10-16T13:57:42;4.03;;;1.10;;
50102;SDS011;35993;52.604;10.078;2022-10-16T14:00:18;3.97;;;1.17;;
50102;SDS011;35993;52.604;10.078;2022-10-16T14:02:50;3.45;;;1.60;;
50102;SDS011;35993;52.604;10.078;2022-10-16T14:05:22;1.85;;;1.27;;
50102;SDS011;35993;52.604;10.078;2022-10-16T14:07:49;2.33;;;1.20;;
50102;SDS011;35993;52.604;10.078;2022-10-16T14:10:20;4.78;;;3.17;;
50102;SDS011;35993;52.604;10.078;2022-10-16T14:12:55;3.15;;;1.13;;
50102;SDS011;35993;52.604;10.078;2022-10-16T14:15:29;2.75;;;1.15;;
50102;SDS011;35993;52.604;10.078;2022-10-16T14:17:57;2.30;;;1.13;;
50102;SDS011;35993;52.604;10.078;2022-10-16T14:20:27;2.90;;;1.10;;
50102;SDS011;35993;52.604;10.078;2022-10-16T14:25:49;1.65;;;0.95;;
50102;SDS011;35993;52.604;10.078;2022-10-16T14:28:18;1.92;;;0.98;;
50102;SDS011;35993;52.604;10.078;2022-10-16T14:30:55;1.30;;;0.70;;
50102;SDS011;35993;52.604;10.078;2022-10-16T14:33:23;2.88;;;1.10;;
50102;SDS011;35993;52.604;10.078;2022-10-16T14:35:59;1.88;;;0.85;;
50102;SDS011;35993;52.604;10.078;2022-10-16T14:38:27;1.65;;;0.80;;
50102;SDS011;35993;52.604;10.078;2022-10-16T14:40:54;1.95;;;0.95;;
50102;SDS011;35993;52.604;10.078;2022-10-16T14:43:44;1.45;;;0.80;;
50102;SDS011;35993;52.604;10.078;2022-10-16T14:46:15;2.00;;;0.90;;
50102;SDS011;35993;52.604;10.078;2022-10-16T14:48:43;4.10;;;1.20;;
50102;SDS011;35993;52.604;10.078;2022-10-16T14:51:14;1.30;;;0.85;;
50102;SDS011;35993;52.604;10.078;2022-10-16T14:53:43;2.47;;;1.30;;
50102;SDS011;35993;52.604;10.078;2022-10-16T14:56:17;1.00;;;0.90;;
50102;SDS011;35993;52.604;10.078;2022-10-16T14:58:52;4.05;;;1.83;;
50102;SDS011;35993;52.604;10.078;2022-10-16T15:01:18;2.67;;;1.40;;
50102;SDS011;35993;52.604;10.078;2022-10-16T15:03:45;1.25;;;1.00;;
50102;SDS011;35993;52.604;10.078;2022-10-16T15:06:11;2.55;;;1.13;;
50102;SDS011;35993;52.604;10.078;2022-10-16T15:08:38;1.60;;;1.00;;
50102;SDS011;35993;52.604;10.078;2022-10-16T15:11:04;3.05;;;1.23;;
50102;SDS011;35993;52.604;10.078;2022-10-16T15:13:30;3.28;;;1.15;;
50102;SDS011;35993;52.604;10.078;2022-10-16T15:15:56;2.47;;;1.10;;
50102;SDS011;35993;52.604;10.078;2022-10-16T15:18:22;2.63;;;1.00;;
50102;SDS011;35993;52.604;10.078;2022-10-16T15:20:48;3.78;;;1.50;;
50102;SDS011;35993;52.604;10.078;2022-10-16T15:23:16;3.17;;;1.52;;
50102;SDS011;35993;52.604;10.078;2022-10-16T15:25:44;3.17;;;1.33;;
50102;SDS011;35993;52.604;10.078;2022-10-16T15:28:23;5.40;;;1.45;;
50102;SDS011;35993;52.604;10.078;2022-10-16T15:30:59;2.20;;;1.17;;
50102;SDS011;35993;52.604;10.078;2022-10-16T15:33:44;2.95;;;1.17;;
50102;SDS011;35993;52.604;10.078;2022-10-16T15:36:12;2.42;;;1.48;;
50102;SDS011;35993;52.604;10.078;2022-10-16T15:38:38;4.03;;;1.25;;
50102;SDS011;35993;52.604;10.078;2022-10-16T15:41:04;3.78;;;1.50;;
50102;SDS011;35993;52.604;10.078;2022-10-16T15:43:33;3.20;;;1.80;;
50102;SDS011;35993;52.604;10.078;2022-10-16T15:46:01;3.25;;;1.45;;
50102;SDS011;35993;52.604;10.078;2022-10-16T15:50:57;1.58;;;0.98;;
50102;SDS011;35993;52.604;10.078;2022-10-16T15:53:22;2.03;;;1.00;;
50102;SDS011;35993;52.604;10.078;2022-10-16T15:55:48;3.53;;;2.08;;
50102;SDS011;35993;52.604;10.078;2022-10-16T15:58:14;3.45;;;1.38;;
50102;SDS011;35993;52.604;10.078;2022-10-16T16:00:40;1.88;;;1.13;;
50102;SDS011;35993;52.604;10.078;2022-10-16T16:03:05;2.78;;;1.20;;
50102;SDS011;35993;52.604;10.078;2022-10-16T16:05:31;2.22;;;1.08;;
50102;SDS011;35993;52.604;10.078;2022-10-16T16:07:58;3.45;;;1.00;;
50102;SDS011;35993;52.604;10.078;2022-10-16T16:10:24;4.55;;;1.42;;
50102;SDS011;35993;52.604;10.078;2022-10-16T16:12:50;2.97;;;1.30;;
50102;SDS011;35993;52.604;10.078;2022-10-16T16:15:21;3.53;;;1.05;;
50102;SDS011;35993;52.604;10.078;2022-10-16T16:17:47;3.05;;;1.38;;
50102;SDS011;35993;52.604;10.078;2022-10-16T16:20:15;2.40;;;1.38;;
50102;SDS011;35993;52.604;10.078;2022-10-16T16:22:42;2.40;;;1.42;;
50102;SDS011;35993;52.604;10.078;2022-10-16T16:25:08;3.40;;;1.67;;
50102;SDS011;35993;52.604;10.078;2022-10-16T16:27:54;5.55;;;1.85;;
50102;SDS011;35993;52.604;10.078;2022-10-16T16:30:20;3.17;;;1.45;;
50102;SDS011;35993;52.604;10.078;2022-10-16T16:32:50;6.40;;;1.55;;
50102;SDS011;35993;52.604;10.078;2022-10-16T16:35:20;4.70;;;1.73;;
50102;SDS011;35993;52.604;10.078;2022-10-16T16:37:47;4.35;;;1.80;;